Terminal Aerodrome Forecast
Issued by NWS Oklahoma City, OK

Home | Current Version | Previous Version | Text Only | Print | Product List | Glossary On
Versions: 1 2 3 4 5 6 7 8 9 10 11 12 13 14 15 16 17 18 19 20 21 22 23 24 25 26 27 28 29 30 31 32 33 34 35 36 37 38 39 40 41
000
FTUS44 KOUN 282129 AAB
TAFOUN
TAF AMD
KOUN 282129Z 2821/2918 16006KT P6SM SCT090
      TEMPO 2822/2902 1SM TSRA OVC015CB
     FM290400 15010KT P6SM VCTS SCT025 BKN050CB
      TEMPO 2904/2908 2SM TSRA BKN025CB
     FM290900 11010KT P6SM VCSH BKN025=

USA.gov is the U.S. government's official web portal to all federal, state and local government web resources and services.